sensor_id;sensor_type;location;lat;lon;timestamp;temperature;humidity
16402;DHT22;8310;44.626;11.176;2022-08-19T00:00:38;24.50;57.10
16402;DHT22;8310;44.626;11.176;2022-08-19T00:03:06;24.40;57.10
16402;DHT22;8310;44.626;11.176;2022-08-19T00:05:35;24.40;57.20
16402;DHT22;8310;44.626;11.176;2022-08-19T00:08:03;24.40;57.10
16402;DHT22;8310;44.626;11.176;2022-08-19T00:10:32;24.40;57.10
16402;DHT22;8310;44.626;11.176;2022-08-19T00:12:59;24.40;57.10
16402;DHT22;8310;44.626;11.176;2022-08-19T00:15:27;24.40;57.10
16402;DHT22;8310;44.626;11.176;2022-08-19T00:17:55;24.30;57.10
16402;DHT22;8310;44.626;11.176;2022-08-19T00:20:24;24.30;57.10
16402;DHT22;8310;44.626;11.176;2022-08-19T00:22:52;24.30;57.10
16402;DHT22;8310;44.626;11.176;2022-08-19T00:25:21;24.30;57.20
16402;DHT22;8310;44.626;11.176;2022-08-19T00:27:48;24.30;57.20
16402;DHT22;8310;44.626;11.176;2022-08-19T00:30:16;24.20;57.20
16402;DHT22;8310;44.626;11.176;2022-08-19T00:32:44;24.20;57.20
16402;DHT22;8310;44.626;11.176;2022-08-19T00:35:12;24.20;57.20
16402;DHT22;8310;44.626;11.176;2022-08-19T00:37:44;24.20;57.30
16402;DHT22;8310;44.626;11.176;2022-08-19T00:40:14;24.20;57.30
16402;DHT22;8310;44.626;11.176;2022-08-19T00:42:43;24.20;57.30
16402;DHT22;8310;44.626;11.176;2022-08-19T00:45:12;24.20;57.30
16402;DHT22;8310;44.626;11.176;2022-08-19T00:47:40;24.10;57.30
16402;DHT22;8310;44.626;11.176;2022-08-19T00:50:10;24.20;57.40
16402;DHT22;8310;44.626;11.176;2022-08-19T00:52:42;24.10;57.40
16402;DHT22;8310;44.626;11.176;2022-08-19T00:55:14;24.20;57.40
16402;DHT22;8310;44.626;11.176;2022-08-19T00:57:46;24.20;57.50
16402;DHT22;8310;44.626;11.176;2022-08-19T01:00:18;24.20;57.50
16402;DHT22;8310;44.626;11.176;2022-08-19T01:02:45;24.10;57.30
16402;DHT22;8310;44.626;11.176;2022-08-19T01:05:17;24.10;57.20
16402;DHT22;8310;44.626;11.176;2022-08-19T01:07:47;24.00;57.10
16402;DHT22;8310;44.626;11.176;2022-08-19T01:10:19;23.90;57.10
16402;DHT22;8310;44.626;11.176;2022-08-19T01:12:47;23.90;57.20
16402;DHT22;8310;44.626;11.176;2022-08-19T01:15:24;23.80;57.20
16402;DHT22;8310;44.626;11.176;2022-08-19T01:17:53;23.80;57.40
16402;DHT22;8310;44.626;11.176;2022-08-19T01:20:23;23.70;57.30
16402;DHT22;8310;44.626;11.176;2022-08-19T01:22:55;23.70;57.40
16402;DHT22;8310;44.626;11.176;2022-08-19T01:25:24;23.80;57.50
16402;DHT22;8310;44.626;11.176;2022-08-19T01:27:54;23.80;57.50
16402;DHT22;8310;44.626;11.176;2022-08-19T01:30:29;23.80;57.60
16402;DHT22;8310;44.626;11.176;2022-08-19T01:32:57;23.80;57.70
16402;DHT22;8310;44.626;11.176;2022-08-19T01:35:27;23.80;57.70
16402;DHT22;8310;44.626;11.176;2022-08-19T01:37:59;23.90;57.80
16402;DHT22;8310;44.626;11.176;2022-08-19T01:40:29;23.90;57.80
16402;DHT22;8310;44.626;11.176;2022-08-19T01:42:57;23.90;57.70
16402;DHT22;8310;44.626;11.176;2022-08-19T01:45:29;23.90;57.70
16402;DHT22;8310;44.626;11.176;2022-08-19T01:47:58;23.90;57.80
16402;DHT22;8310;44.626;11.176;2022-08-19T01:50:26;23.80;57.80
16402;DHT22;8310;44.626;11.176;2022-08-19T01:52:54;23.80;57.70
16402;DHT22;8310;44.626;11.176;2022-08-19T01:55:23;23.80;57.70
16402;DHT22;8310;44.626;11.176;2022-08-19T01:57:54;23.80;57.70
16402;DHT22;8310;44.626;11.176;2022-08-19T02:00:25;23.80;57.80
16402;DHT22;8310;44.626;11.176;2022-08-19T02:02:54;23.80;57.80
16402;DHT22;8310;44.626;11.176;2022-08-19T02:05:21;23.80;57.80
16402;DHT22;8310;44.626;11.176;2022-08-19T02:07:49;23.80;57.80
16402;DHT22;8310;44.626;11.176;2022-08-19T02:10:19;23.80;57.90
16402;DHT22;8310;44.626;11.176;2022-08-19T02:12:49;23.70;57.80
16402;DHT22;8310;44.626;11.176;2022-08-19T02:15:17;23.80;57.90
16402;DHT22;8310;44.626;11.176;2022-08-19T02:17:46;23.80;57.90
16402;DHT22;8310;44.626;11.176;2022-08-19T02:20:16;23.70;57.90
16402;DHT22;8310;44.626;11.176;2022-08-19T02:22:44;23.70;57.80
16402;DHT22;8310;44.626;11.176;2022-08-19T02:25:12;23.70;57.90
16402;DHT22;8310;44.626;11.176;2022-08-19T02:27:41;23.70;57.90
16402;DHT22;8310;44.626;11.176;2022-08-19T02:30:14;23.60;57.90
16402;DHT22;8310;44.626;11.176;2022-08-19T02:32:43;23.60;57.70
16402;DHT22;8310;44.626;11.176;2022-08-19T02:35:11;23.50;57.60
16402;DHT22;8310;44.626;11.176;2022-08-19T02:37:41;23.40;57.50
16402;DHT22;8310;44.626;11.176;2022-08-19T02:40:26;23.40;57.60
16402;DHT22;8310;44.626;11.176;2022-08-19T02:42:53;23.30;57.40
16402;DHT22;8310;44.626;11.176;2022-08-19T02:45:22;23.10;57.30
16402;DHT22;8310;44.626;11.176;2022-08-19T02:47:50;23.10;57.30
16402;DHT22;8310;44.626;11.176;2022-08-19T02:50:18;22.90;57.30
16402;DHT22;8310;44.626;11.176;2022-08-19T02:52:45;22.80;57.30
16402;DHT22;8310;44.626;11.176;2022-08-19T02:55:17;22.80;57.40
16402;DHT22;8310;44.626;11.176;2022-08-19T02:57:46;22.70;57.40
16402;DHT22;8310;44.626;11.176;2022-08-19T03:00:14;22.60;57.40
16402;DHT22;8310;44.626;11.176;2022-08-19T03:02:43;22.60;57.50
16402;DHT22;8310;44.626;11.176;2022-08-19T03:05:12;22.60;57.50
16402;DHT22;8310;44.626;11.176;2022-08-19T03:07:39;22.50;57.50
16402;DHT22;8310;44.626;11.176;2022-08-19T03:10:08;22.50;57.60
16402;DHT22;8310;44.626;11.176;2022-08-19T03:12:37;22.40;57.70
16402;DHT22;8310;44.626;11.176;2022-08-19T03:15:06;22.40;57.80
16402;DHT22;8310;44.626;11.176;2022-08-19T03:17:35;22.50;57.90
16402;DHT22;8310;44.626;11.176;2022-08-19T03:20:05;22.50;57.90
16402;DHT22;8310;44.626;11.176;2022-08-19T03:22:33;22.50;57.90
16402;DHT22;8310;44.626;11.176;2022-08-19T03:25:00;22.50;57.90
16402;DHT22;8310;44.626;11.176;2022-08-19T03:27:27;22.50;58.00
16402;DHT22;8310;44.626;11.176;2022-08-19T03:29:55;22.40;58.00
16402;DHT22;8310;44.626;11.176;2022-08-19T03:32:23;22.40;58.10
16402;DHT22;8310;44.626;11.176;2022-08-19T03:34:50;22.40;58.10
16402;DHT22;8310;44.626;11.176;2022-08-19T03:37:20;22.50;58.20
16402;DHT22;8310;44.626;11.176;2022-08-19T03:39:48;22.50;58.10
16402;DHT22;8310;44.626;11.176;2022-08-19T03:42:15;22.50;58.20
16402;DHT22;8310;44.626;11.176;2022-08-19T03:44:43;22.50;58.30
16402;DHT22;8310;44.626;11.176;2022-08-19T03:47:11;22.50;58.20
16402;DHT22;8310;44.626;11.176;2022-08-19T03:49:42;22.50;58.10
16402;DHT22;8310;44.626;11.176;2022-08-19T03:52:09;22.50;58.20
16402;DHT22;8310;44.626;11.176;2022-08-19T03:54:38;22.50;58.30
16402;DHT22;8310;44.626;11.176;2022-08-19T03:57:06;22.60;58.40
16402;DHT22;8310;44.626;11.176;2022-08-19T03:59:35;22.60;58.40
16402;DHT22;8310;44.626;11.176;2022-08-19T04:02:07;22.60;58.60
16402;DHT22;8310;44.626;11.176;2022-08-19T04:04:34;22.70;58.60
16402;DHT22;8310;44.626;11.176;2022-08-19T04:07:03;22.80;58.70
16402;DHT22;8310;44.626;11.176;2022-08-19T04:09:30;22.80;58.70
16402;DHT22;8310;44.626;11.176;2022-08-19T04:11:59;22.90;58.70
16402;DHT22;8310;44.626;11.176;2022-08-19T04:14:29;22.90;58.70
16402;DHT22;8310;44.626;11.176;2022-08-19T04:16:56;23.00;58.80
16402;DHT22;8310;44.626;11.176;2022-08-19T04:19:25;23.00;58.80
16402;DHT22;8310;44.626;11.176;2022-08-19T04:21:54;23.10;58.80
16402;DHT22;8310;44.626;11.176;2022-08-19T04:24:22;23.00;58.80
16402;DHT22;8310;44.626;11.176;2022-08-19T04:26:50;23.10;58.80
16402;DHT22;8310;44.626;11.176;2022-08-19T04:29:22;23.10;58.80
16402;DHT22;8310;44.626;11.176;2022-08-19T04:31:54;23.10;58.80
16402;DHT22;8310;44.626;11.176;2022-08-19T04:34:25;23.20;58.80
16402;DHT22;8310;44.626;11.176;2022-08-19T04:36:54;23.20;58.80
16402;DHT22;8310;44.626;11.176;2022-08-19T04:39:23;23.20;58.80
16402;DHT22;8310;44.626;11.176;2022-08-19T04:42:12;23.10;58.80
16402;DHT22;8310;44.626;11.176;2022-08-19T04:44:58;23.20;58.80
16402;DHT22;8310;44.626;11.176;2022-08-19T04:47:26;23.10;58.80
16402;DHT22;8310;44.626;11.176;2022-08-19T04:49:53;23.10;58.80
16402;DHT22;8310;44.626;11.176;2022-08-19T04:52:21;23.10;58.80
16402;DHT22;8310;44.626;11.176;2022-08-19T04:54:48;23.10;58.80
16402;DHT22;8310;44.626;11.176;2022-08-19T04:57:16;23.10;58.80
16402;DHT22;8310;44.626;11.176;2022-08-19T04:59:43;23.10;58.80
16402;DHT22;8310;44.626;11.176;2022-08-19T05:02:12;23.00;58.70
16402;DHT22;8310;44.626;11.176;2022-08-19T05:04:40;23.00;58.70
16402;DHT22;8310;44.626;11.176;2022-08-19T05:07:08;23.00;58.80
16402;DHT22;8310;44.626;11.176;2022-08-19T05:09:35;23.00;58.80
16402;DHT22;8310;44.626;11.176;2022-08-19T05:12:03;22.90;58.70
16402;DHT22;8310;44.626;11.176;2022-08-19T05:14:32;22.90;58.70
16402;DHT22;8310;44.626;11.176;2022-08-19T05:17:01;22.80;58.70
16402;DHT22;8310;44.626;11.176;2022-08-19T05:19:30;22.80;58.70
16402;DHT22;8310;44.626;11.176;2022-08-19T05:22:14;22.80;58.80
16402;DHT22;8310;44.626;11.176;2022-08-19T05:25:09;22.70;58.70
16402;DHT22;8310;44.626;11.176;2022-08-19T05:27:37;22.70;58.80
16402;DHT22;8310;44.626;11.176;2022-08-19T05:30:07;22.70;58.80
16402;DHT22;8310;44.626;11.176;2022-08-19T05:32:35;22.70;59.40
16402;DHT22;8310;44.626;11.176;2022-08-19T05:35:05;22.60;59.40
16402;DHT22;8310;44.626;11.176;2022-08-19T05:37:33;22.60;58.70
16402;DHT22;8310;44.626;11.176;2022-08-19T05:40:00;22.60;58.70
16402;DHT22;8310;44.626;11.176;2022-08-19T05:54:46;22.40;58.20
16402;DHT22;8310;44.626;11.176;2022-08-19T05:57:16;22.40;58.90
16402;DHT22;8310;44.626;11.176;2022-08-19T05:59:44;22.30;58.90
16402;DHT22;8310;44.626;11.176;2022-08-19T06:02:17;22.40;58.90
16402;DHT22;8310;44.626;11.176;2022-08-19T06:04:45;22.40;58.90
16402;DHT22;8310;44.626;11.176;2022-08-19T06:07:12;22.40;58.90
16402;DHT22;8310;44.626;11.176;2022-08-19T06:09:40;22.40;58.90
16402;DHT22;8310;44.626;11.176;2022-08-19T06:12:10;22.40;59.00
16402;DHT22;8310;44.626;11.176;2022-08-19T06:14:38;22.40;59.00
16402;DHT22;8310;44.626;11.176;2022-08-19T06:17:07;22.40;59.10
16402;DHT22;8310;44.626;11.176;2022-08-19T06:19:34;22.40;59.10
16402;DHT22;8310;44.626;11.176;2022-08-19T06:22:02;22.40;59.10
16402;DHT22;8310;44.626;11.176;2022-08-19T06:24:30;22.40;59.70
16402;DHT22;8310;44.626;11.176;2022-08-19T06:26:58;22.30;59.00
16402;DHT22;8310;44.626;11.176;2022-08-19T06:29:28;22.30;59.00
16402;DHT22;8310;44.626;11.176;2022-08-19T06:31:58;22.20;59.10
16402;DHT22;8310;44.626;11.176;2022-08-19T06:34:27;22.20;59.10
16402;DHT22;8310;44.626;11.176;2022-08-19T06:36:58;22.20;59.00
16402;DHT22;8310;44.626;11.176;2022-08-19T06:39:30;22.10;59.00
16402;DHT22;8310;44.626;11.176;2022-08-19T06:42:00;22.00;58.90
16402;DHT22;8310;44.626;11.176;2022-08-19T06:44:31;22.00;59.00
16402;DHT22;8310;44.626;11.176;2022-08-19T06:47:02;21.90;59.00
16402;DHT22;8310;44.626;11.176;2022-08-19T06:49:30;21.80;59.00
16402;DHT22;8310;44.626;11.176;2022-08-19T06:51:58;21.80;59.10
16402;DHT22;8310;44.626;11.176;2022-08-19T06:54:26;21.70;59.10
16402;DHT22;8310;44.626;11.176;2022-08-19T06:56:55;21.70;59.20
16402;DHT22;8310;44.626;11.176;2022-08-19T06:59:24;21.60;59.20
16402;DHT22;8310;44.626;11.176;2022-08-19T07:01:56;21.60;59.30
16402;DHT22;8310;44.626;11.176;2022-08-19T07:04:27;21.60;59.40
16402;DHT22;8310;44.626;11.176;2022-08-19T07:06:59;21.60;59.40
16402;DHT22;8310;44.626;11.176;2022-08-19T07:09:27;21.60;59.50
16402;DHT22;8310;44.626;11.176;2022-08-19T07:11:55;21.60;59.50
16402;DHT22;8310;44.626;11.176;2022-08-19T07:14:25;21.60;59.60
16402;DHT22;8310;44.626;11.176;2022-08-19T07:16:56;21.60;59.60
16402;DHT22;8310;44.626;11.176;2022-08-19T07:19:25;21.60;60.40
16402;DHT22;8310;44.626;11.176;2022-08-19T07:21:54;21.60;59.70
16402;DHT22;8310;44.626;11.176;2022-08-19T07:24:23;21.60;59.70
16402;DHT22;8310;44.626;11.176;2022-08-19T07:26:54;21.60;59.70
16402;DHT22;8310;44.626;11.176;2022-08-19T07:29:22;21.60;59.80
16402;DHT22;8310;44.626;11.176;2022-08-19T07:31:50;21.60;59.80
16402;DHT22;8310;44.626;11.176;2022-08-19T07:34:19;21.70;60.00
16402;DHT22;8310;44.626;11.176;2022-08-19T07:36:46;21.70;59.90
16402;DHT22;8310;44.626;11.176;2022-08-19T07:39:16;21.70;60.00
16402;DHT22;8310;44.626;11.176;2022-08-19T07:41:45;21.70;60.00
16402;DHT22;8310;44.626;11.176;2022-08-19T07:44:14;21.70;60.00
16402;DHT22;8310;44.626;11.176;2022-08-19T07:46:45;21.70;60.00
16402;DHT22;8310;44.626;11.176;2022-08-19T07:49:19;21.80;60.10
16402;DHT22;8310;44.626;11.176;2022-08-19T07:51:49;21.80;60.10
16402;DHT22;8310;44.626;11.176;2022-08-19T07:54:17;21.80;60.20
16402;DHT22;8310;44.626;11.176;2022-08-19T07:56:45;21.80;60.20
16402;DHT22;8310;44.626;11.176;2022-08-19T07:59:12;21.80;60.30
16402;DHT22;8310;44.626;11.176;2022-08-19T08:01:39;21.80;60.40
16402;DHT22;8310;44.626;11.176;2022-08-19T08:04:07;21.80;60.50
16402;DHT22;8310;44.626;11.176;2022-08-19T08:06:53;21.80;60.60
16402;DHT22;8310;44.626;11.176;2022-08-19T08:09:41;21.90;60.70
16402;DHT22;8310;44.626;11.176;2022-08-19T08:12:11;21.90;60.80
16402;DHT22;8310;44.626;11.176;2022-08-19T08:14:43;22.00;60.90
16402;DHT22;8310;44.626;11.176;2022-08-19T08:17:12;22.00;61.10
16402;DHT22;8310;44.626;11.176;2022-08-19T08:19:39;22.00;61.10
16402;DHT22;8310;44.626;11.176;2022-08-19T08:22:10;22.10;61.10
16402;DHT22;8310;44.626;11.176;2022-08-19T08:25:01;22.10;61.10
16402;DHT22;8310;44.626;11.176;2022-08-19T08:27:29;22.20;61.30
16402;DHT22;8310;44.626;11.176;2022-08-19T08:29:57;22.20;61.40
16402;DHT22;8310;44.626;11.176;2022-08-19T08:32:25;22.30;61.80
16402;DHT22;8310;44.626;11.176;2022-08-19T08:34:52;22.50;62.30
16402;DHT22;8310;44.626;11.176;2022-08-19T08:37:22;22.70;62.60
16402;DHT22;8310;44.626;11.176;2022-08-19T08:39:49;22.90;62.70
16402;DHT22;8310;44.626;11.176;2022-08-19T08:42:22;23.00;62.80
16402;DHT22;8310;44.626;11.176;2022-08-19T08:44:55;23.20;63.00
16402;DHT22;8310;44.626;11.176;2022-08-19T08:47:26;23.40;62.90
16402;DHT22;8310;44.626;11.176;2022-08-19T08:49:58;23.50;62.70
16402;DHT22;8310;44.626;11.176;2022-08-19T08:52:30;23.60;62.60
16402;DHT22;8310;44.626;11.176;2022-08-19T08:55:07;23.70;62.50
16402;DHT22;8310;44.626;11.176;2022-08-19T08:57:38;23.80;62.30
16402;DHT22;8310;44.626;11.176;2022-08-19T09:00:14;23.80;62.10
16402;DHT22;8310;44.626;11.176;2022-08-19T09:02:42;23.90;62.00
16402;DHT22;8310;44.626;11.176;2022-08-19T09:05:10;23.90;61.90
16402;DHT22;8310;44.626;11.176;2022-08-19T09:07:48;23.90;62.10
16402;DHT22;8310;44.626;11.176;2022-08-19T09:10:21;24.00;62.20
16402;DHT22;8310;44.626;11.176;2022-08-19T09:12:56;24.10;62.20
16402;DHT22;8310;44.626;11.176;2022-08-19T09:15:32;24.10;62.20
16402;DHT22;8310;44.626;11.176;2022-08-19T09:18:03;24.20;62.20
16402;DHT22;8310;44.626;11.176;2022-08-19T09:20:32;24.30;62.20
16402;DHT22;8310;44.626;11.176;2022-08-19T09:23:01;24.40;62.40
16402;DHT22;8310;44.626;11.176;2022-08-19T09:25:28;24.50;62.40
16402;DHT22;8310;44.626;11.176;2022-08-19T09:27:56;24.60;62.30
16402;DHT22;8310;44.626;11.176;2022-08-19T09:30:29;24.60;62.00
16402;DHT22;8310;44.626;11.176;2022-08-19T09:32:58;24.60;62.00
16402;DHT22;8310;44.626;11.176;2022-08-19T09:35:28;24.70;62.20
16402;DHT22;8310;44.626;11.176;2022-08-19T09:37:56;24.70;62.00
16402;DHT22;8310;44.626;11.176;2022-08-19T09:40:25;24.70;61.70
16402;DHT22;8310;44.626;11.176;2022-08-19T09:42:53;24.70;61.60
16402;DHT22;8310;44.626;11.176;2022-08-19T09:45:21;24.70;61.50
16402;DHT22;8310;44.626;11.176;2022-08-19T09:47:50;24.70;61.80
16402;DHT22;8310;44.626;11.176;2022-08-19T09:50:18;24.80;61.90
16402;DHT22;8310;44.626;11.176;2022-08-19T09:52:46;24.90;62.40
16402;DHT22;8310;44.626;11.176;2022-08-19T09:55:14;25.00;62.70
16402;DHT22;8310;44.626;11.176;2022-08-19T09:57:44;25.20;62.50
16402;DHT22;8310;44.626;11.176;2022-08-19T10:00:12;25.30;62.80
16402;DHT22;8310;44.626;11.176;2022-08-19T10:02:40;25.50;62.70
16402;DHT22;8310;44.626;11.176;2022-08-19T10:05:09;25.50;62.30
16402;DHT22;8310;44.626;11.176;2022-08-19T10:07:54;25.50;61.90
16402;DHT22;8310;44.626;11.176;2022-08-19T10:10:21;25.50;61.80
16402;DHT22;8310;44.626;11.176;2022-08-19T10:12:52;25.50;62.10
16402;DHT22;8310;44.626;11.176;2022-08-19T10:15:21;25.50;62.40
16402;DHT22;8310;44.626;11.176;2022-08-19T10:17:49;25.60;62.70
16402;DHT22;8310;44.626;11.176;2022-08-19T10:20:16;25.70;62.70
16402;DHT22;8310;44.626;11.176;2022-08-19T10:22:44;25.90;62.80
16402;DHT22;8310;44.626;11.176;2022-08-19T10:25:11;25.90;62.90
16402;DHT22;8310;44.626;11.176;2022-08-19T10:27:39;26.10;63.20
16402;DHT22;8310;44.626;11.176;2022-08-19T10:30:10;26.20;63.30
16402;DHT22;8310;44.626;11.176;2022-08-19T10:32:38;26.30;63.10
16402;DHT22;8310;44.626;11.176;2022-08-19T10:35:06;26.30;62.80
16402;DHT22;8310;44.626;11.176;2022-08-19T10:37:35;26.40;62.90
16402;DHT22;8310;44.626;11.176;2022-08-19T10:40:05;26.50;63.10
16402;DHT22;8310;44.626;11.176;2022-08-19T10:42:33;26.60;63.10
16402;DHT22;8310;44.626;11.176;2022-08-19T10:45:02;26.70;63.30
16402;DHT22;8310;44.626;11.176;2022-08-19T10:47:33;26.80;63.40
16402;DHT22;8310;44.626;11.176;2022-08-19T10:50:01;26.90;63.50
16402;DHT22;8310;44.626;11.176;2022-08-19T10:52:47;27.00;63.10
16402;DHT22;8310;44.626;11.176;2022-08-19T10:55:15;27.00;62.90
16402;DHT22;8310;44.626;11.176;2022-08-19T10:58:00;27.10;63.00
16402;DHT22;8310;44.626;11.176;2022-08-19T11:00:28;27.20;63.10
16402;DHT22;8310;44.626;11.176;2022-08-19T11:03:04;27.30;62.70
16402;DHT22;8310;44.626;11.176;2022-08-19T11:05:31;27.20;62.10
16402;DHT22;8310;44.626;11.176;2022-08-19T11:07:59;27.10;61.90
16402;DHT22;8310;44.626;11.176;2022-08-19T11:10:26;27.10;62.20
16402;DHT22;8310;44.626;11.176;2022-08-19T11:12:54;27.10;62.50
16402;DHT22;8310;44.626;11.176;2022-08-19T11:15:22;27.20;62.70
16402;DHT22;8310;44.626;11.176;2022-08-19T11:17:51;27.30;62.80
16402;DHT22;8310;44.626;11.176;2022-08-19T11:20:23;27.30;62.80
16402;DHT22;8310;44.626;11.176;2022-08-19T11:22:52;27.40;62.60
16402;DHT22;8310;44.626;11.176;2022-08-19T11:25:20;27.40;62.60
16402;DHT22;8310;44.626;11.176;2022-08-19T11:27:48;27.50;62.80
16402;DHT22;8310;44.626;11.176;2022-08-19T11:30:17;27.60;62.90
16402;DHT22;8310;44.626;11.176;2022-08-19T11:32:45;27.70;62.90
16402;DHT22;8310;44.626;11.176;2022-08-19T11:35:16;27.80;63.20
16402;DHT22;8310;44.626;11.176;2022-08-19T11:37:47;28.00;63.20
16402;DHT22;8310;44.626;11.176;2022-08-19T11:40:15;28.00;62.70
16402;DHT22;8310;44.626;11.176;2022-08-19T11:42:42;28.10;62.60
16402;DHT22;8310;44.626;11.176;2022-08-19T11:45:22;28.10;62.30
16402;DHT22;8310;44.626;11.176;2022-08-19T11:47:49;28.00;62.30
16402;DHT22;8310;44.626;11.176;2022-08-19T11:50:17;28.00;62.40
16402;DHT22;8310;44.626;11.176;2022-08-19T11:52:53;28.00;62.40
16402;DHT22;8310;44.626;11.176;2022-08-19T11:55:22;28.00;62.60
16402;DHT22;8310;44.626;11.176;2022-08-19T11:57:49;28.10;62.60
16402;DHT22;8310;44.626;11.176;2022-08-19T12:00:17;28.10;62.30
16402;DHT22;8310;44.626;11.176;2022-08-19T12:02:45;28.10;62.50
16402;DHT22;8310;44.626;11.176;2022-08-19T12:05:12;28.20;62.50
16402;DHT22;8310;44.626;11.176;2022-08-19T12:07:40;28.20;62.30
16402;DHT22;8310;44.626;11.176;2022-08-19T12:10:11;28.20;62.20
16402;DHT22;8310;44.626;11.176;2022-08-19T12:12:38;28.20;62.00
16402;DHT22;8310;44.626;11.176;2022-08-19T12:15:09;28.10;62.00
16402;DHT22;8310;44.626;11.176;2022-08-19T12:17:36;28.10;62.20
16402;DHT22;8310;44.626;11.176;2022-08-19T12:20:05;28.10;62.10
16402;DHT22;8310;44.626;11.176;2022-08-19T12:22:34;28.20;62.30
16402;DHT22;8310;44.626;11.176;2022-08-19T12:25:02;28.30;62.40
16402;DHT22;8310;44.626;11.176;2022-08-19T12:27:31;28.40;62.30
16402;DHT22;8310;44.626;11.176;2022-08-19T12:29:58;28.40;62.20
16402;DHT22;8310;44.626;11.176;2022-08-19T12:32:27;28.40;62.20
16402;DHT22;8310;44.626;11.176;2022-08-19T12:34:55;28.50;62.10
16402;DHT22;8310;44.626;11.176;2022-08-19T12:37:22;28.50;62.10
16402;DHT22;8310;44.626;11.176;2022-08-19T12:39:50;28.50;62.20
16402;DHT22;8310;44.626;11.176;2022-08-19T12:42:18;28.50;62.10
16402;DHT22;8310;44.626;11.176;2022-08-19T12:44:49;28.60;62.20
16402;DHT22;8310;44.626;11.176;2022-08-19T12:47:18;28.60;62.10
16402;DHT22;8310;44.626;11.176;2022-08-19T12:49:45;28.60;62.00
16402;DHT22;8310;44.626;11.176;2022-08-19T12:52:13;28.70;62.30
16402;DHT22;8310;44.626;11.176;2022-08-19T12:54:42;28.80;62.30
16402;DHT22;8310;44.626;11.176;2022-08-19T12:57:10;28.80;62.00
16402;DHT22;8310;44.626;11.176;2022-08-19T12:59:38;28.80;61.70
16402;DHT22;8310;44.626;11.176;2022-08-19T13:02:11;28.70;61.60
16402;DHT22;8310;44.626;11.176;2022-08-19T13:04:39;28.70;61.40
16402;DHT22;8310;44.626;11.176;2022-08-19T13:07:08;28.70;61.60
16402;DHT22;8310;44.626;11.176;2022-08-19T13:09:35;28.70;61.50
16402;DHT22;8310;44.626;11.176;2022-08-19T13:12:04;28.60;61.20
16402;DHT22;8310;44.626;11.176;2022-08-19T13:14:34;28.60;61.30
16402;DHT22;8310;44.626;11.176;2022-08-19T13:17:01;28.60;61.20
16402;DHT22;8310;44.626;11.176;2022-08-19T13:19:31;28.60;61.10
16402;DHT22;8310;44.626;11.176;2022-08-19T13:21:58;28.60;61.30
16402;DHT22;8310;44.626;11.176;2022-08-19T13:24:26;28.60;61.50
16402;DHT22;8310;44.626;11.176;2022-08-19T13:26:53;28.60;61.20
16402;DHT22;8310;44.626;11.176;2022-08-19T13:29:21;28.60;61.20
16402;DHT22;8310;44.626;11.176;2022-08-19T13:32:05;28.70;61.70
16402;DHT22;8310;44.626;11.176;2022-08-19T13:34:51;28.70;61.50
16402;DHT22;8310;44.626;11.176;2022-08-19T13:37:19;28.80;61.20
16402;DHT22;8310;44.626;11.176;2022-08-19T13:40:07;28.80;61.20
16402;DHT22;8310;44.626;11.176;2022-08-19T13:42:38;28.80;61.60
16402;DHT22;8310;44.626;11.176;2022-08-19T13:45:06;29.00;61.50
16402;DHT22;8310;44.626;11.176;2022-08-19T13:47:34;29.00;61.10
16402;DHT22;8310;44.626;11.176;2022-08-19T13:50:07;28.90;60.80
16402;DHT22;8310;44.626;11.176;2022-08-19T13:52:34;28.90;60.60
16402;DHT22;8310;44.626;11.176;2022-08-19T13:55:01;28.80;60.30
16402;DHT22;8310;44.626;11.176;2022-08-19T13:57:30;28.70;60.20
16402;DHT22;8310;44.626;11.176;2022-08-19T13:59:58;28.60;60.00
16402;DHT22;8310;44.626;11.176;2022-08-19T14:02:26;28.50;60.00
16402;DHT22;8310;44.626;11.176;2022-08-19T14:04:54;28.40;59.90
16402;DHT22;8310;44.626;11.176;2022-08-19T14:07:23;28.40;59.90
16402;DHT22;8310;44.626;11.176;2022-08-19T14:09:50;28.30;59.90
16402;DHT22;8310;44.626;11.176;2022-08-19T14:12:19;28.20;59.90
16402;DHT22;8310;44.626;11.176;2022-08-19T14:14:47;28.20;59.90
16402;DHT22;8310;44.626;11.176;2022-08-19T14:17:15;28.20;59.90
16402;DHT22;8310;44.626;11.176;2022-08-19T14:19:42;28.10;59.80
16402;DHT22;8310;44.626;11.176;2022-08-19T14:22:10;28.00;59.70
16402;DHT22;8310;44.626;11.176;2022-08-19T14:25:01;28.00;59.80
16402;DHT22;8310;44.626;11.176;2022-08-19T14:27:41;28.00;59.90
16402;DHT22;8310;44.626;11.176;2022-08-19T14:30:15;27.90;59.90
16402;DHT22;8310;44.626;11.176;2022-08-19T14:32:43;28.00;60.30
16402;DHT22;8310;44.626;11.176;2022-08-19T14:35:12;28.10;60.70
16402;DHT22;8310;44.626;11.176;2022-08-19T14:37:41;28.20;60.80
16402;DHT22;8310;44.626;11.176;2022-08-19T14:40:11;28.30;61.10
16402;DHT22;8310;44.626;11.176;2022-08-19T14:42:40;28.50;61.40
16402;DHT22;8310;44.626;11.176;2022-08-19T14:45:08;28.60;61.40
16402;DHT22;8310;44.626;11.176;2022-08-19T14:47:36;28.80;61.20
16402;DHT22;8310;44.626;11.176;2022-08-19T14:50:05;28.80;60.70
16402;DHT22;8310;44.626;11.176;2022-08-19T14:52:33;28.80;61.10
16402;DHT22;8310;44.626;11.176;2022-08-19T14:55:01;28.70;60.00
16402;DHT22;8310;44.626;11.176;2022-08-19T14:57:30;28.60;59.80
16402;DHT22;8310;44.626;11.176;2022-08-19T14:59:58;28.50;59.60
16402;DHT22;8310;44.626;11.176;2022-08-19T15:02:26;28.40;59.50
16402;DHT22;8310;44.626;11.176;2022-08-19T15:04:54;28.30;59.60
16402;DHT22;8310;44.626;11.176;2022-08-19T15:07:22;28.20;59.50
16402;DHT22;8310;44.626;11.176;2022-08-19T15:09:50;28.10;59.50
16402;DHT22;8310;44.626;11.176;2022-08-19T15:12:17;28.00;59.40
16402;DHT22;8310;44.626;11.176;2022-08-19T15:14:47;27.90;59.30
16402;DHT22;8310;44.626;11.176;2022-08-19T15:17:16;27.80;59.30
16402;DHT22;8310;44.626;11.176;2022-08-19T15:19:43;27.70;59.30
16402;DHT22;8310;44.626;11.176;2022-08-19T15:22:11;27.70;59.30
16402;DHT22;8310;44.626;11.176;2022-08-19T15:24:38;27.70;59.40
16402;DHT22;8310;44.626;11.176;2022-08-19T15:27:08;27.60;59.30
16402;DHT22;8310;44.626;11.176;2022-08-19T15:29:37;27.60;59.30
16402;DHT22;8310;44.626;11.176;2022-08-19T15:32:07;27.50;59.30
16402;DHT22;8310;44.626;11.176;2022-08-19T15:34:34;27.50;59.30
16402;DHT22;8310;44.626;11.176;2022-08-19T15:37:01;27.40;59.20
16402;DHT22;8310;44.626;11.176;2022-08-19T15:39:30;27.40;59.20
16402;DHT22;8310;44.626;11.176;2022-08-19T15:41:58;27.30;59.30
16402;DHT22;8310;44.626;11.176;2022-08-19T15:44:27;27.30;59.30
16402;DHT22;8310;44.626;11.176;2022-08-19T15:46:57;27.30;59.40
16402;DHT22;8310;44.626;11.176;2022-08-19T15:49:27;27.30;59.40
16402;DHT22;8310;44.626;11.176;2022-08-19T15:51:54;27.30;59.30
16402;DHT22;8310;44.626;11.176;2022-08-19T15:54:25;27.30;59.30
16402;DHT22;8310;44.626;11.176;2022-08-19T15:56:53;27.20;59.10